createdAt,value
2018-04-30T00:00:31.988Z,9.70
2018-04-30T00:03:01.012Z,9.17
2018-04-30T00:05:29.971Z,8.37
2018-04-30T00:07:59.101Z,8.33
2018-04-30T00:10:29.087Z,8.20
2018-04-30T00:12:58.389Z,8.00
2018-04-30T00:15:28.097Z,7.97
2018-04-30T00:17:57.184Z,8.20
2018-04-30T00:20:26.100Z,8.00
2018-04-30T00:22:56.002Z,8.23
2018-04-30T00:25:24.895Z,8.47
2018-04-30T00:27:53.891Z,8.03
2018-04-30T00:30:23.737Z,7.60
2018-04-30T00:32:53.249Z,8.10
2018-04-30T00:35:22.189Z,7.80
2018-04-30T00:37:51.124Z,7.37
2018-04-30T00:40:20.093Z,7.17
2018-04-30T00:42:49.087Z,8.33
2018-04-30T00:45:18.176Z,7.90
2018-04-30T00:47:47.378Z,7.20
2018-04-30T00:50:16.278Z,7.47
2018-04-30T00:52:45.980Z,7.60
2018-04-30T00:55:15.069Z,7.43
2018-04-30T00:57:44.077Z,7.43
2018-04-30T01:00:13.152Z,7.20
2018-04-30T01:02:42.066Z,7.27
2018-04-30T01:05:11.153Z,7.13
2018-04-30T01:07:40.253Z,6.90
2018-04-30T01:10:09.248Z,7.73
2018-04-30T01:12:38.093Z,6.67
2018-04-30T01:15:07.273Z,7.60
2018-04-30T01:17:36.212Z,7.20
2018-04-30T01:20:05.148Z,6.60
2018-04-30T01:22:34.776Z,6.80
2018-04-30T01:25:03.830Z,6.77
2018-04-30T01:27:32.702Z,7.13
2018-04-30T01:30:01.722Z,6.93
2018-04-30T01:32:30.716Z,6.70
2018-04-30T01:34:59.716Z,7.37
2018-04-30T01:37:28.701Z,6.70
2018-04-30T01:39:57.582Z,6.73
2018-04-30T01:42:26.570Z,6.30
2018-04-30T01:47:30.153Z,6.37
2018-04-30T01:49:59.195Z,5.67
2018-04-30T01:52:29.941Z,6.17
2018-04-30T01:54:58.877Z,6.57
2018-04-30T01:57:27.826Z,5.97
2018-04-30T01:59:57.776Z,6.33
2018-04-30T02:02:26.727Z,6.80
2018-04-30T02:04:55.561Z,7.23
2018-04-30T02:07:24.520Z,6.37
2018-04-30T02:09:53.799Z,5.93
2018-04-30T02:12:22.810Z,7.20
2018-04-30T02:14:54.389Z,6.00
2018-04-30T02:17:23.356Z,6.63
2018-04-30T02:19:57.173Z,5.73
2018-04-30T02:22:25.930Z,6.87
2018-04-30T02:24:54.831Z,6.83
2018-04-30T02:27:23.719Z,6.50
2018-04-30T02:29:52.700Z,6.30
2018-04-30T02:32:23.035Z,6.27
2018-04-30T02:34:52.961Z,7.93
2018-04-30T02:37:21.825Z,6.83
2018-04-30T02:39:50.729Z,6.60
2018-04-30T02:42:21.409Z,7.00
2018-04-30T02:44:50.358Z,6.93
2018-04-30T02:47:19.249Z,7.93
2018-04-30T02:49:48.145Z,6.90
2018-04-30T02:52:17.234Z,8.10
2018-04-30T02:54:46.133Z,8.30
2018-04-30T02:57:16.761Z,7.07
2018-04-30T02:59:45.791Z,7.17
2018-04-30T03:02:14.852Z,6.70
2018-04-30T03:04:44.052Z,7.67
2018-04-30T03:07:12.878Z,7.63
2018-04-30T03:09:41.738Z,7.83
2018-04-30T03:14:47.611Z,7.50
2018-04-30T03:17:16.499Z,7.60
2018-04-30T03:19:45.595Z,7.53
2018-04-30T03:24:49.005Z,7.70
2018-04-30T03:27:18.008Z,7.53
2018-04-30T03:29:46.891Z,6.67
2018-04-30T03:32:16.744Z,6.30
2018-04-30T03:34:46.653Z,5.53
2018-04-30T03:37:15.717Z,5.40
2018-04-30T03:39:45.633Z,6.07
2018-04-30T03:42:14.528Z,4.80
2018-04-30T03:44:44.011Z,5.27
2018-04-30T03:47:13.028Z,6.20
2018-04-30T03:49:41.998Z,5.53
2018-04-30T03:52:11.018Z,5.77
2018-04-30T03:57:14.185Z,5.03
2018-04-30T03:59:43.054Z,4.70
2018-04-30T04:02:24.093Z,5.20
2018-04-30T04:05:16.574Z,4.93
2018-04-30T04:07:46.298Z,5.53
2018-04-30T04:10:15.235Z,4.83
2018-04-30T04:12:44.350Z,5.10
2018-04-30T04:15:13.433Z,5.20
2018-04-30T04:17:42.426Z,5.30
2018-04-30T04:20:11.522Z,6.47
2018-04-30T04:22:42.408Z,5.83
2018-04-30T04:25:11.366Z,5.43
2018-04-30T04:27:40.351Z,5.40
2018-04-30T04:30:11.836Z,5.83
2018-04-30T04:32:41.324Z,5.13
2018-04-30T04:35:10.202Z,5.77
2018-04-30T04:37:39.298Z,5.80
2018-04-30T04:40:08.298Z,6.10
2018-04-30T04:42:37.390Z,5.47
2018-04-30T04:45:12.848Z,6.40
2018-04-30T04:47:41.801Z,5.60
2018-04-30T04:50:11.603Z,6.60
2018-04-30T04:52:42.458Z,7.40
2018-04-30T04:55:11.420Z,6.03
2018-04-30T04:57:40.291Z,6.50
2018-04-30T05:00:09.246Z,7.80
2018-04-30T05:02:38.290Z,6.80
2018-04-30T05:05:07.286Z,6.93
2018-04-30T05:07:37.101Z,8.17
2018-04-30T05:10:05.891Z,6.77
2018-04-30T05:12:38.116Z,7.87
2018-04-30T05:15:07.290Z,7.90
2018-04-30T05:17:37.201Z,7.83
2018-04-30T05:29:11.964Z,7.20
2018-04-30T05:31:40.843Z,7.40
2018-04-30T05:34:09.908Z,7.70
2018-04-30T05:36:38.842Z,8.00
2018-04-30T05:39:07.943Z,7.17
2018-04-30T05:41:36.874Z,6.47
2018-04-30T05:44:05.871Z,7.50
2018-04-30T05:46:34.963Z,7.03
2018-04-30T05:49:03.857Z,7.10
2018-04-30T05:51:32.862Z,7.10
2018-04-30T05:54:01.741Z,7.10
2018-04-30T05:56:30.604Z,7.47
2018-04-30T05:59:00.475Z,6.87
2018-04-30T06:01:29.437Z,7.10
2018-04-30T06:03:58.432Z,8.00
2018-04-30T06:06:27.418Z,6.77
2018-04-30T06:08:56.421Z,7.10
2018-04-30T06:11:25.425Z,7.40
2018-04-30T06:13:54.314Z,6.43
2018-04-30T06:16:23.205Z,7.10
2018-04-30T06:18:52.093Z,6.00
2018-04-30T06:21:20.981Z,6.07
2018-04-30T06:23:49.981Z,8.87
2018-04-30T06:26:18.971Z,6.80
2018-04-30T06:28:48.814Z,7.00
2018-04-30T06:31:17.566Z,6.13
2018-04-30T06:33:46.442Z,5.50
2018-04-30T06:36:15.407Z,5.63
2018-04-30T06:38:44.351Z,6.77
2018-04-30T06:41:13.221Z,5.50
2018-04-30T06:43:42.950Z,5.90
2018-04-30T06:46:12.739Z,5.73
2018-04-30T06:48:41.828Z,6.57
2018-04-30T06:51:11.658Z,5.77
2018-04-30T06:53:40.545Z,6.43
2018-04-30T06:56:09.396Z,6.20
2018-04-30T06:58:39.554Z,6.57
2018-04-30T07:01:08.650Z,6.67
2018-04-30T07:03:37.501Z,6.70
2018-04-30T07:06:07.229Z,6.47
2018-04-30T07:08:36.040Z,6.17
2018-04-30T07:11:04.835Z,5.90
2018-04-30T07:13:35.364Z,6.27
2018-04-30T07:16:04.349Z,5.83
2018-04-30T07:18:33.119Z,6.77
2018-04-30T07:21:01.937Z,5.80
2018-04-30T07:23:30.785Z,7.17
2018-04-30T07:25:59.722Z,6.47
2018-04-30T07:28:28.717Z,6.20
2018-04-30T07:30:57.604Z,5.70
2018-04-30T07:33:26.547Z,5.53
2018-04-30T07:35:56.412Z,6.47
2018-04-30T07:38:25.407Z,5.80
2018-04-30T07:40:54.196Z,5.80
2018-04-30T07:43:24.623Z,7.13
2018-04-30T07:45:53.617Z,6.77
2018-04-30T07:48:22.727Z,6.10
2018-04-30T07:50:51.709Z,6.03
2018-04-30T07:53:20.632Z,6.67
2018-04-30T07:55:49.530Z,6.70
2018-04-30T07:58:18.901Z,6.43
2018-04-30T08:00:47.785Z,6.23
2018-04-30T08:03:16.643Z,6.10
2018-04-30T08:08:20.101Z,5.73
2018-04-30T08:10:48.952Z,6.40
2018-04-30T08:13:18.900Z,5.90
2018-04-30T08:15:47.687Z,7.13
2018-04-30T08:18:16.585Z,5.87
2018-04-30T08:20:45.619Z,6.17
2018-04-30T08:23:14.476Z,6.03
2018-04-30T08:25:44.207Z,7.07
2018-04-30T08:28:13.145Z,6.30
2018-04-30T08:30:42.038Z,5.97
2018-04-30T08:33:10.955Z,6.83
2018-04-30T08:35:39.850Z,6.03
2018-04-30T08:38:08.640Z,6.13
2018-04-30T08:40:37.735Z,6.43
2018-04-30T08:43:09.285Z,6.47
2018-04-30T08:45:38.310Z,8.53
2018-04-30T08:48:07.172Z,6.50
2018-04-30T08:50:38.624Z,6.43
2018-04-30T08:53:07.549Z,6.00
2018-04-30T08:55:36.434Z,5.87
2018-04-30T08:58:05.543Z,6.43
2018-04-30T09:00:34.381Z,6.30
2018-04-30T09:03:03.234Z,5.87
2018-04-30T09:05:32.224Z,5.20
2018-04-30T09:08:01.109Z,5.37
2018-04-30T09:10:29.992Z,5.70
2018-04-30T09:13:02.674Z,5.30
2018-04-30T09:15:31.668Z,5.03
2018-04-30T09:18:00.458Z,5.20
2018-04-30T09:20:30.188Z,4.17
2018-04-30T09:22:58.985Z,5.33
2018-04-30T09:25:27.744Z,6.00
2018-04-30T09:33:04.559Z,5.40
2018-04-30T09:35:33.684Z,5.60
2018-04-30T09:38:02.455Z,5.13
2018-04-30T09:43:06.811Z,4.63
2018-04-30T09:45:35.777Z,4.50
2018-04-30T09:48:04.667Z,4.50
2018-04-30T09:50:33.660Z,3.90
2018-04-30T09:53:02.942Z,4.10
2018-04-30T09:55:31.965Z,4.67
2018-04-30T09:58:00.964Z,4.47
2018-04-30T10:00:29.741Z,5.20
2018-04-30T10:02:58.629Z,3.90
2018-04-30T10:05:29.427Z,4.73
2018-04-30T10:07:58.465Z,3.67
2018-04-30T10:10:27.363Z,4.23
2018-04-30T10:12:56.244Z,4.30
2018-04-30T10:15:25.142Z,4.90
2018-04-30T10:17:54.244Z,4.40
2018-04-30T10:20:24.051Z,3.63
2018-04-30T10:22:52.988Z,3.63
2018-04-30T10:25:21.810Z,4.13
2018-04-30T10:27:50.824Z,3.57
2018-04-30T10:30:19.616Z,3.40
2018-04-30T10:32:48.618Z,4.40
2018-04-30T10:35:18.556Z,3.80
2018-04-30T10:37:48.586Z,3.67
2018-04-30T10:40:17.368Z,3.87
2018-04-30T10:42:46.359Z,4.27
2018-04-30T10:45:15.222Z,4.90
2018-04-30T10:47:44.931Z,4.60
2018-04-30T10:50:13.829Z,4.03
2018-04-30T10:52:42.819Z,4.17
2018-04-30T10:55:12.567Z,3.87
2018-04-30T10:57:41.555Z,3.40
2018-04-30T11:00:10.520Z,3.70
2018-04-30T11:02:39.380Z,4.00
2018-04-30T11:05:08.201Z,4.60
2018-04-30T11:07:37.092Z,4.30
2018-04-30T11:10:05.986Z,3.90
2018-04-30T11:12:34.868Z,4.13
2018-04-30T11:15:04.481Z,4.00
2018-04-30T11:17:33.886Z,3.50
2018-04-30T11:20:05.472Z,3.60
2018-04-30T11:22:34.287Z,3.87
2018-04-30T11:25:03.094Z,4.27
2018-04-30T11:27:34.582Z,3.70
2018-04-30T11:30:03.561Z,3.40
2018-04-30T11:32:32.496Z,4.80
2018-04-30T11:35:01.450Z,3.30
2018-04-30T11:37:30.340Z,3.63
2018-04-30T11:39:59.518Z,3.77
2018-04-30T11:42:28.406Z,2.70
2018-04-30T11:44:57.326Z,2.70
2018-04-30T11:47:26.165Z,3.53
2018-04-30T11:49:55.931Z,2.80
2018-04-30T11:52:24.824Z,3.13
2018-04-30T11:54:53.621Z,3.00
2018-04-30T11:59:57.419Z,3.20
2018-04-30T12:02:26.325Z,3.30
2018-04-30T12:04:57.887Z,3.73
2018-04-30T12:07:26.874Z,4.07
2018-04-30T12:09:55.769Z,3.50
2018-04-30T12:12:24.557Z,3.30
2018-04-30T12:14:53.480Z,3.73
2018-04-30T12:17:22.339Z,4.03
2018-04-30T12:19:51.944Z,3.40
2018-04-30T12:22:20.840Z,3.50
2018-04-30T12:24:49.725Z,3.20
2018-04-30T12:27:21.285Z,3.70
2018-04-30T12:29:50.427Z,3.30
2018-04-30T12:32:19.478Z,3.43
2018-04-30T12:34:48.643Z,4.27
2018-04-30T12:37:17.823Z,3.50
2018-04-30T12:39:47.187Z,3.77
2018-04-30T12:42:16.928Z,3.80
2018-04-30T12:44:45.886Z,3.80
2018-04-30T12:47:14.813Z,4.03
2018-04-30T12:49:44.460Z,3.93
2018-04-30T12:52:13.375Z,3.70
2018-04-30T12:54:42.267Z,4.00
2018-04-30T12:59:47.832Z,3.97
2018-04-30T13:02:16.777Z,4.90
2018-04-30T13:04:45.822Z,3.63
2018-04-30T13:09:49.759Z,3.40
2018-04-30T13:12:18.833Z,4.00
2018-04-30T13:14:48.255Z,4.20
2018-04-30T13:17:18.011Z,3.50
2018-04-30T13:19:46.958Z,4.13
2018-04-30T13:22:15.964Z,4.30
2018-04-30T13:24:45.861Z,3.50
2018-04-30T13:27:15.379Z,3.80
2018-04-30T13:29:44.158Z,3.57
2018-04-30T13:32:15.723Z,3.43
2018-04-30T13:34:44.603Z,4.10
2018-04-30T13:37:13.358Z,3.73
2018-04-30T13:39:43.114Z,4.73
2018-04-30T13:42:12.863Z,4.20
2018-04-30T13:44:41.812Z,3.30
2018-04-30T13:47:10.703Z,3.70
2018-04-30T13:49:39.628Z,3.50
2018-04-30T13:52:08.600Z,3.50
2018-04-30T13:57:11.291Z,3.73
2018-04-30T13:59:40.119Z,3.70
2018-04-30T14:02:09.069Z,3.60
2018-04-30T14:04:37.963Z,5.80
2018-04-30T14:07:07.770Z,3.77
2018-04-30T14:09:37.926Z,3.60
2018-04-30T14:12:06.689Z,4.00
2018-04-30T14:14:35.576Z,4.07
2018-04-30T14:17:06.207Z,4.80
2018-04-30T14:19:35.217Z,4.00
2018-04-30T14:22:04.202Z,3.87
2018-04-30T14:24:33.095Z,4.70
2018-04-30T14:27:01.982Z,4.20
2018-04-30T14:29:30.982Z,4.00
2018-04-30T14:32:06.106Z,4.57
2018-04-30T14:34:34.892Z,4.37
2018-04-30T14:37:03.796Z,4.73
2018-04-30T14:39:33.529Z,4.40
2018-04-30T17:38:52.582Z,6.43
2018-04-30T17:41:22.305Z,6.73
2018-04-30T17:43:51.229Z,6.50
2018-04-30T17:46:21.847Z,7.30
2018-04-30T17:48:51.667Z,6.40
2018-04-30T17:51:20.502Z,7.30
2018-04-30T17:53:51.139Z,6.30
2018-04-30T17:56:19.993Z,7.10
2018-04-30T17:58:48.899Z,6.37
2018-04-30T18:01:18.651Z,7.20
2018-04-30T18:03:47.506Z,8.17
2018-04-30T18:06:17.103Z,7.10
2018-04-30T18:08:45.992Z,7.33
2018-04-30T18:11:14.823Z,6.80
2018-04-30T18:13:44.791Z,6.70
2018-04-30T18:16:16.260Z,6.23
2018-04-30T18:18:45.645Z,6.50
2018-04-30T18:21:14.533Z,7.40
2018-04-30T18:23:43.527Z,6.50
2018-04-30T18:26:12.426Z,7.13
2018-04-30T18:28:42.129Z,7.27
2018-04-30T18:31:11.235Z,7.60
2018-04-30T18:33:42.719Z,7.70
2018-04-30T18:38:45.490Z,7.97
2018-04-30T18:41:14.324Z,7.67
2018-04-30T18:43:43.473Z,8.80
2018-04-30T18:46:13.078Z,7.33
2018-04-30T18:48:42.188Z,8.63
2018-04-30T18:53:45.000Z,9.43
2018-04-30T18:56:14.002Z,7.87
2018-04-30T18:58:44.721Z,8.57
2018-04-30T19:01:13.857Z,8.07
2018-04-30T19:03:42.795Z,8.33
2018-04-30T19:06:11.627Z,8.47
2018-04-30T19:08:40.463Z,7.87
2018-04-30T19:11:09.395Z,10.23
2018-04-30T19:13:39.982Z,8.90
2018-04-30T19:16:09.941Z,9.37
2018-04-30T19:18:39.608Z,8.53
2018-04-30T19:21:14.250Z,8.70
2018-04-30T19:23:43.095Z,8.87
2018-04-30T19:26:12.027Z,9.90
2018-04-30T19:28:41.021Z,9.53
2018-04-30T19:31:09.939Z,9.07
2018-04-30T19:33:39.832Z,9.07
2018-04-30T19:36:14.766Z,9.30
2018-04-30T19:38:43.732Z,9.00
2018-04-30T19:41:13.563Z,9.20
2018-04-30T19:43:42.679Z,9.47
2018-04-30T19:46:11.563Z,10.20
2018-04-30T19:48:40.395Z,8.30
2018-04-30T19:51:09.389Z,8.97
2018-04-30T19:53:38.288Z,8.87
2018-04-30T19:56:07.102Z,7.80
2018-04-30T19:58:38.612Z,9.70
2018-04-30T20:01:07.523Z,7.90
2018-04-30T20:03:37.640Z,7.97
2018-04-30T20:06:08.268Z,8.10
2018-04-30T20:08:37.167Z,7.97
2018-04-30T20:11:06.155Z,7.20
2018-04-30T20:13:36.470Z,8.07
2018-04-30T20:16:05.367Z,7.03
2018-04-30T20:18:34.106Z,7.60
2018-04-30T20:21:03.146Z,6.30
2018-04-30T20:23:32.196Z,6.37
2018-04-30T20:26:01.084Z,6.03
2018-04-30T20:28:30.048Z,5.73
2018-04-30T20:30:59.031Z,5.37
2018-04-30T20:33:33.072Z,5.43
2018-04-30T20:36:05.417Z,5.30
2018-04-30T20:38:35.232Z,5.40
2018-04-30T20:41:04.330Z,5.10
2018-04-30T20:43:33.927Z,5.80
2018-04-30T20:46:03.642Z,4.90
2018-04-30T20:48:32.536Z,5.17
2018-04-30T20:51:02.600Z,4.67
2018-04-30T20:53:31.491Z,4.50
2018-04-30T20:56:00.271Z,4.60
2018-04-30T20:58:28.974Z,5.17
2018-04-30T21:00:57.935Z,4.90
2018-04-30T21:03:26.831Z,4.90
2018-04-30T21:05:55.698Z,4.80
2018-04-30T21:08:24.593Z,4.63
2018-04-30T21:10:53.565Z,4.60
2018-04-30T21:13:22.579Z,4.50
2018-04-30T21:15:53.084Z,5.43
2018-04-30T21:18:21.897Z,5.27
2018-04-30T21:20:50.866Z,5.03
2018-04-30T21:23:22.352Z,5.20
2018-04-30T21:25:51.370Z,4.67
2018-04-30T21:28:20.334Z,5.00
2018-04-30T21:30:49.327Z,4.53
2018-04-30T21:33:18.217Z,5.30
2018-04-30T21:35:47.109Z,4.60
2018-04-30T21:38:17.859Z,5.07
2018-04-30T21:40:46.811Z,5.47
2018-04-30T21:43:15.737Z,5.70
2018-04-30T21:45:44.622Z,5.30
2018-04-30T21:48:13.611Z,5.70
2018-04-30T21:50:42.409Z,5.13
2018-04-30T21:53:11.434Z,5.80
2018-04-30T21:55:40.291Z,5.13
2018-04-30T21:58:09.186Z,5.43
2018-04-30T22:00:38.117Z,6.27
2018-04-30T22:03:07.012Z,5.90
2018-04-30T22:05:36.162Z,6.00
2018-04-30T22:08:09.266Z,6.07
2018-04-30T22:10:38.246Z,6.30
2018-04-30T22:13:07.141Z,5.70
2018-04-30T22:15:37.005Z,6.23
2018-04-30T22:18:05.831Z,7.30
2018-04-30T22:20:35.564Z,6.30
2018-04-30T22:23:06.597Z,6.33
2018-04-30T22:25:36.515Z,6.93
2018-04-30T22:28:05.505Z,6.33
2018-04-30T22:30:35.426Z,6.57
2018-04-30T22:33:04.411Z,5.97
2018-04-30T22:35:33.305Z,5.77
2018-04-30T22:38:03.221Z,6.73
2018-04-30T22:40:32.115Z,7.60
2018-04-30T22:43:01.114Z,7.47
2018-04-30T22:45:30.308Z,7.57
2018-04-30T22:48:00.119Z,7.17
2018-04-30T22:50:29.733Z,8.63
2018-04-30T22:58:06.964Z,6.77
2018-04-30T23:00:35.882Z,7.37
2018-04-30T23:03:04.835Z,7.90
2018-04-30T23:05:33.718Z,8.27
2018-04-30T23:08:02.831Z,7.40
2018-04-30T23:10:33.053Z,8.17
2018-04-30T23:13:01.870Z,7.70
2018-04-30T23:15:31.347Z,7.83
2018-04-30T23:18:00.347Z,7.80
2018-04-30T23:20:29.209Z,8.47
2018-04-30T23:22:58.110Z,8.00
2018-04-30T23:25:28.861Z,8.10
2018-04-30T23:27:57.849Z,9.50
2018-04-30T23:30:26.846Z,7.87
2018-04-30T23:32:58.712Z,7.87
2018-04-30T23:35:28.468Z,8.27
2018-04-30T23:37:57.346Z,7.93
2018-04-30T23:40:26.392Z,8.00
2018-04-30T23:42:55.298Z,7.93
2018-04-30T23:45:24.275Z,8.17
2018-04-30T23:47:53.391Z,8.33
2018-04-30T23:50:23.305Z,8.50
2018-04-30T23:52:52.096Z,8.57
2018-04-30T23:57:55.516Z,7.80
